| time (UTC) | temp F | wind direction | speed MPH | gust MPH | rain 1hr in | rain 24hr in | rain mn in | humidity % | barometer mb |
| 20260831230610 | 0 | 270 | 8.0 | 13.0 | 0.00 | 0.00 | 0.00 | 1 | 1024.3 |
| 20260831225627 | 0 | 270 | 9.0 | 14.0 | 0.00 | 0.00 | 0.00 | 1 | 1024.4 |
| 20260831224640 | 0 | 270 | 8.0 | 14.0 | 0.00 | 0.00 | 0.00 | 1 | 1024.4 |
| 20260831223615 | 0 | 270 | 7.0 | 14.0 | 0.00 | 0.00 | 0.00 | 1 | 1024.5 |
| 20260831222610 | 0 | 270 | 9.0 | 16.0 | 0.00 | 0.00 | 0.00 | 1 | 1024.5 |
| 20260831221605 | 0 | 270 | 8.0 | 13.0 | 0.00 | 0.00 | 0.00 | 1 | 1024.6 |
| 20260831220701 | 0 | 270 | 9.0 | 15.0 | 0.00 | 0.00 | 0.00 | 1 | 1024.4 |
| 20260831215556 | 0 | 270 | 7.0 | 15.0 | 0.00 | 0.00 | 0.00 | 1 | 1024.6 |
| 20260831214529 | 0 | 270 | 9.0 | 16.0 | 0.00 | 0.00 | 0.00 | 1 | 1024.6 |
| 20260831213524 | 0 | 270 | 7.0 | 13.0 | 0.00 | 0.00 | 0.00 | 1 | 1024.6 |
| 20260831212519 | 0 | 270 | 8.0 | 15.0 | 0.00 | 0.00 | 0.00 | 1 | 1024.3 |
| 20260831211614 | 0 | 270 | 9.0 | 15.0 | 0.00 | 0.00 | 0.00 | 1 | 1024.2 |
| 20260831210629 | 0 | 270 | 9.0 | 16.0 | 0.00 | 0.00 | 0.00 | 1 | 1024.2 |
| 20260831205624 | 0 | 270 | 9.0 | 17.0 | 0.00 | 0.00 | 0.00 | 1 | 1024.1 |
| 20260831204559 | 0 | 270 | 9.0 | 17.0 | 0.00 | 0.00 | 0.00 | 1 | 1024.0 |
| 20260831203554 | 0 | 270 | 9.0 | 15.0 | 0.00 | 0.00 | 0.00 | 1 | 1023.9 |
| 20260831202549 | 0 | 270 | 7.0 | 14.0 | 0.00 | 0.00 | 0.00 | 1 | 1023.8 |
| 20260831201605 | 0 | 270 | 9.0 | 17.0 | 0.00 | 0.00 | 0.00 | 1 | 1023.7 |
| 20260831200538 | 0 | 270 | 10.0 | 18.0 | 0.00 | 0.00 | 0.00 | 1 | 1023.4 |
| 20260831195553 | 0 | 270 | 10.0 | 17.0 | 0.00 | 0.00 | 0.00 | 1 | 1023.2 |
| 20260831194528 | 0 | 270 | 9.0 | 16.0 | 0.00 | 0.00 | 0.00 | 1 | 1023.2 |
| 20260831193543 | 0 | 270 | 9.0 | 16.0 | 0.00 | 0.00 | 0.00 | 1 | 1023.0 |
| 20260831192653 | 0 | 270 | 9.0 | 16.0 | 0.00 | 0.00 | 0.00 | 1 | 1023.0 |
| 20260831191602 | 0 | 270 | 7.0 | 11.0 | 0.00 | 0.00 | 0.00 | 1 | 1023.1 |
| 20260831190551 | 0 | 270 | 9.0 | 22.0 | 0.00 | 0.00 | 0.00 | 1 | 1022.9 |
| 20260831185546 | 0 | 270 | 8.0 | 16.0 | 0.00 | 0.00 | 0.00 | 1 | 1022.8 |
| 20260831184556 | 0 | 270 | 10.0 | 17.0 | 0.00 | 0.00 | 0.00 | 1 | 1022.7 |
| 20260831183525 | 0 | 270 | 11.0 | 20.0 | 0.00 | 0.00 | 0.00 | 1 | 1022.7 |
| 20260831182616 | 0 | 270 | 11.0 | 17.0 | 0.00 | 0.00 | 0.00 | 1 | 1022.7 |
| 20260831181611 | 0 | 270 | 8.0 | 14.0 | 0.00 | 0.00 | 0.00 | 1 | 1022.7 |
| 20260831180601 | 0 | 270 | 9.0 | 16.0 | 0.00 | 0.00 | 0.00 | 1 | 1022.7 |
| 20260831175552 | 0 | 270 | 15.0 | 21.0 | 0.00 | 0.00 | 0.00 | 1 | 1022.7 |
| 20260831174546 | 0 | 270 | 11.0 | 18.0 | 0.00 | 0.00 | 0.00 | 1 | 1022.6 |
| 20260831173537 | 0 | 270 | 12.0 | 21.0 | 0.00 | 0.00 | 0.00 | 1 | 1022.7 |
| 20260831172528 | 0 | 270 | 11.0 | 17.0 | 0.00 | 0.00 | 0.00 | 1 | 1022.7 |
| 20260831171522 | 0 | 270 | 11.0 | 22.0 | 0.00 | 0.00 | 0.00 | 1 | 1022.5 |
| 20260831170614 | 0 | 270 | 11.0 | 23.0 | 0.00 | 0.00 | 0.00 | 1 | 1022.8 |
| 20260831165604 | 0 | 270 | 12.0 | 21.0 | 0.00 | 0.00 | 0.00 | 1 | 1022.8 |
| 20260831164559 | 0 | 270 | 9.0 | 15.0 | 0.00 | 0.00 | 0.00 | 1 | 1022.9 |
| 20260831163549 | 0 | 270 | 7.0 | 16.0 | 0.00 | 0.00 | 0.00 | 1 | 1022.8 |
| 20260831162540 | 0 | 270 | 10.0 | 18.0 | 0.00 | 0.00 | 0.00 | 1 | 1022.8 |
| 20260831161556 | 0 | 270 | 10.0 | 18.0 | 0.00 | 0.00 | 0.00 | 1 | 1022.8 |
| 20260831160525 | 0 | 270 | 11.0 | 18.0 | 0.00 | 0.00 | 0.00 | 1 | 1022.8 |
| 20260831155635 | 0 | 270 | 9.0 | 20.0 | 0.00 | 0.00 | 0.00 | 1 | 1022.8 |
| 20260831154610 | 0 | 270 | 11.0 | 22.0 | 0.00 | 0.00 | 0.00 | 1 | 1022.8 |
| 20260831153619 | 0 | 270 | 7.0 | 14.0 | 0.00 | 0.00 | 0.00 | 1 | 1022.8 |
| 20260831152610 | 0 | 270 | 7.0 | 13.0 | 0.00 | 0.00 | 0.00 | 1 | 1022.8 |
| 20260831151600 | 0 | 270 | 7.0 | 16.0 | 0.00 | 0.00 | 0.00 | 1 | 1022.9 |
| 20260831150534 | 0 | 270 | 9.0 | 17.0 | 0.00 | 0.00 | 0.00 | 1 | 1023.1 |
| 20260831145524 | 0 | 270 | 7.0 | 15.0 | 0.00 | 0.00 | 0.00 | 1 | 1023.0 |
| 20260831144613 | 0 | 270 | 8.0 | 14.0 | 0.00 | 0.00 | 0.00 | 1 | 1023.1 |
| 20260831143604 | 0 | 270 | 8.0 | 20.0 | 0.00 | 0.00 | 0.00 | 1 | 1023.1 |
| 20260831142559 | 0 | 270 | 7.0 | 14.0 | 0.00 | 0.00 | 0.00 | 1 | 1023.2 |
| 20260831141549 | 0 | 270 | 5.0 | 11.0 | 0.00 | 0.00 | 0.00 | 1 | 1023.3 |
| 20260831140538 | 0 | 270 | 7.0 | 15.0 | 0.00 | 0.00 | 0.00 | 1 | 1023.3 |
| 20260831135527 | 0 | 270 | 6.0 | 11.0 | 0.00 | 0.00 | 0.00 | 1 | 1023.4 |
| 20260831134522 | 0 | 270 | 7.0 | 11.0 | 0.00 | 0.00 | 0.00 | 1 | 1023.4 |
| 20260831133614 | 0 | 270 | 8.0 | 14.0 | 0.00 | 0.00 | 0.00 | 1 | 1023.5 |
| 20260831132603 | 0 | 270 | 6.0 | 11.0 | 0.00 | 0.00 | 0.00 | 1 | 1023.6 |
| 20260831131558 | 0 | 270 | 5.0 | 11.0 | 0.00 | 0.00 | 0.00 | 1 | 1023.6 |
| 20260831130609 | 0 | 270 | 5.0 | 11.0 | 0.00 | 0.00 | 0.00 | 1 | 1023.7 |
| 20260831125541 | 0 | 270 | 7.0 | 13.0 | 0.00 | 0.00 | 0.00 | 1 | 1023.7 |
| 20260831124534 | 0 | 270 | 7.0 | 13.0 | 0.00 | 0.00 | 0.00 | 1 | 1023.9 |
| 20260831123545 | 0 | 270 | 5.0 | 11.0 | 0.00 | 0.00 | 0.00 | 1 | 1023.9 |
| 20260831122615 | 0 | 270 | 7.0 | 15.0 | 0.00 | 0.00 | 0.00 | 1 | 1024.0 |
| 20260831121631 | 0 | 270 | 6.0 | 14.0 | 0.00 | 0.00 | 0.00 | 1 | 1024.1 |
| 20260831120603 | 0 | 270 | 8.0 | 11.0 | 0.00 | 0.00 | 0.00 | 1 | 1024.0 |
| 20260831115612 | 0 | 270 | 9.0 | 16.0 | 0.00 | 0.00 | 0.00 | 1 | 1024.1 |
| 20260831114548 | 0 | 270 | 7.0 | 13.0 | 0.00 | 0.00 | 0.00 | 1 | 1024.3 |
| 20260831113537 | 0 | 270 | 7.0 | 11.0 | 0.00 | 0.00 | 0.00 | 1 | 1024.3 |
| 20260831112548 | 0 | 270 | 10.0 | 17.0 | 0.00 | 0.00 | 0.00 | 1 | 1024.3 |
| 20260831111544 | 0 | 270 | 7.0 | 14.0 | 0.00 | 0.00 | 0.00 | 1 | 1024.3 |
| 20260831110613 | 0 | 270 | 8.0 | 17.0 | 0.00 | 0.00 | 0.00 | 1 | 1024.4 |
| 20260831105603 | 0 | 270 | 11.0 | 17.0 | 0.00 | 0.00 | 0.00 | 1 | 1024.4 |
| 20260831104558 | 0 | 270 | 9.0 | 14.0 | 0.00 | 0.00 | 0.00 | 1 | 1024.4 |
| 20260831103548 | 0 | 270 | 9.0 | 17.0 | 0.00 | 0.00 | 0.00 | 1 | 1024.4 |
| 20260831102538 | 0 | 270 | 7.0 | 11.0 | 0.00 | 0.00 | 0.00 | 1 | 1024.5 |
| 20260831101525 | 0 | 270 | 10.0 | 18.0 | 0.00 | 0.00 | 0.00 | 1 | 1024.4 |
| 20260831100515 | 0 | 270 | 9.0 | 17.0 | 0.00 | 0.00 | 0.00 | 1 | 1024.6 |
| 20260831095610 | 0 | 270 | 9.0 | 16.0 | 0.00 | 0.00 | 0.00 | 1 | 1024.5 |
| 20260831094601 | 0 | 270 | 9.0 | 16.0 | 0.00 | 0.00 | 0.00 | 1 | 1024.6 |
| 20260831093552 | 0 | 270 | 10.0 | 17.0 | 0.00 | 0.00 | 0.00 | 1 | 1024.7 |
| 20260831092608 | 0 | 270 | 9.0 | 17.0 | 0.00 | 0.00 | 0.00 | 1 | 1024.5 |
| 20260831091537 | 0 | 270 | 11.0 | 18.0 | 0.00 | 0.00 | 0.00 | 1 | 1024.4 |
| 20260831090528 | 0 | 270 | 9.0 | 17.0 | 0.00 | 0.00 | 0.00 | 1 | 1024.4 |
| 20260831085522 | 0 | 270 | 10.0 | 20.0 | 0.00 | 0.00 | 0.00 | 1 | 1024.5 |
| 20260831084616 | 0 | 270 | 11.0 | 18.0 | 0.00 | 0.00 | 0.00 | 1 | 1024.4 |
| 20260831083624 | 0 | 270 | 11.0 | 17.0 | 0.00 | 0.00 | 0.00 | 1 | 1024.5 |
| 20260831082559 | 0 | 270 | 8.0 | 15.0 | 0.00 | 0.00 | 0.00 | 1 | 1024.5 |
| 20260831081549 | 0 | 270 | 8.0 | 15.0 | 0.00 | 0.00 | 0.00 | 1 | 1024.3 |
| 20260831080538 | 0 | 270 | 9.0 | 17.0 | 0.00 | 0.00 | 0.00 | 1 | 1024.4 |
| 20260831075529 | 0 | 270 | 11.0 | 20.0 | 0.00 | 0.00 | 0.00 | 1 | 1024.4 |
| 20260831074522 | 0 | 270 | 9.0 | 15.0 | 0.00 | 0.00 | 0.00 | 1 | 1024.3 |
| 20260831073614 | 0 | 270 | 9.0 | 15.0 | 0.00 | 0.00 | 0.00 | 1 | 1024.3 |
| 20260831072603 | 0 | 270 | 10.0 | 16.0 | 0.00 | 0.00 | 0.00 | 1 | 1024.2 |
| 20260831071619 | 0 | 270 | 8.0 | 15.0 | 0.00 | 0.00 | 0.00 | 1 | 1024.2 |
| 20260831070607 | 0 | 270 | 7.0 | 13.0 | 0.00 | 0.00 | 0.00 | 1 | 1024.1 |
| 20260831065537 | 0 | 270 | 8.0 | 11.0 | 0.00 | 0.00 | 0.00 | 1 | 1024.1 |
| 20260831064548 | 0 | 270 | 8.0 | 11.0 | 0.00 | 0.00 | 0.00 | 1 | 1024.2 |
| 20260831063524 | 0 | 270 | 7.0 | 11.0 | 0.00 | 0.00 | 0.00 | 1 | 1024.0 |
| 20260831062613 | 0 | 270 | 8.0 | 14.0 | 0.00 | 0.00 | 0.00 | 1 | 1024.0 |
| 20260831061604 | 0 | 270 | 7.0 | 11.0 | 0.00 | 0.00 | 0.00 | 1 | 1024.0 |
| 20260831060559 | 0 | 270 | 7.0 | 11.0 | 0.00 | 0.00 | 0.00 | 1 | 1024.0 |
| 20260831055550 | 0 | 270 | 7.0 | 13.0 | 0.00 | 0.00 | 0.00 | 1 | 1023.9 |
| 20260831054539 | 0 | 270 | 6.0 | 11.0 | 0.00 | 0.00 | 0.00 | 1 | 1023.7 |
| 20260831053534 | 0 | 270 | 6.0 | 13.0 | 0.00 | 0.00 | 0.00 | 1 | 1023.5 |
| 20260831052523 | 0 | 270 | 6.0 | 13.0 | 0.00 | 0.00 | 0.00 | 1 | 1023.7 |
| 20260831051613 | 0 | 270 | 7.0 | 11.0 | 0.00 | 0.00 | 0.00 | 1 | 1023.5 |
| 20260831050603 | 0 | 270 | 9.0 | 14.0 | 0.00 | 0.00 | 0.00 | 1 | 1023.5 |
| 20260831045559 | 0 | 270 | 7.0 | 11.0 | 0.00 | 0.00 | 0.00 | 1 | 1023.6 |
| 20260831044549 | 0 | 270 | 7.0 | 11.0 | 0.00 | 0.00 | 0.00 | 1 | 1023.5 |
| 20260831043540 | 0 | 270 | 8.0 | 15.0 | 0.00 | 0.00 | 0.00 | 1 | 1023.4 |
| 20260831042534 | 0 | 270 | 9.0 | 14.0 | 0.00 | 0.00 | 0.00 | 1 | 1023.5 |
| 20260831041545 | 0 | 270 | 7.0 | 11.0 | 0.00 | 0.00 | 0.00 | 1 | 1023.5 |
| 20260831040516 | 0 | 270 | 8.0 | 15.0 | 0.00 | 0.00 | 0.00 | 1 | 1023.6 |
| 20260831035631 | 0 | 270 | 8.0 | 14.0 | 0.00 | 0.00 | 0.00 | 1 | 1023.6 |
| 20260831034601 | 0 | 270 | 7.0 | 14.0 | 0.00 | 0.00 | 0.00 | 1 | 1023.5 |
| 20260831033553 | 0 | 270 | 8.0 | 15.0 | 0.00 | 0.00 | 0.00 | 1 | 1023.4 |
| 20260831032607 | 0 | 270 | 8.0 | 14.0 | 0.00 | 0.00 | 0.00 | 1 | 1023.4 |
| 20260831031537 | 0 | 270 | 7.0 | 11.0 | 0.00 | 0.00 | 0.00 | 1 | 1023.6 |
| 20260831030548 | 0 | 270 | 6.0 | 13.0 | 0.00 | 0.00 | 0.00 | 1 | 1023.5 |
| 20260831025522 | 0 | 270 | 6.0 | 11.0 | 0.00 | 0.00 | 0.00 | 1 | 1023.4 |
| 20260831024614 | 0 | 270 | 6.0 | 14.0 | 0.00 | 0.00 | 0.00 | 1 | 1023.4 |
| 20260831023604 | 0 | 270 | 7.0 | 11.0 | 0.00 | 0.00 | 0.00 | 1 | 1023.3 |
| 20260831022559 | 0 | 270 | 7.0 | 11.0 | 0.00 | 0.00 | 0.00 | 1 | 1023.3 |
| 20260831021549 | 0 | 270 | 7.0 | 11.0 | 0.00 | 0.00 | 0.00 | 1 | 1023.4 |
| 20260831020538 | 0 | 270 | 7.0 | 14.0 | 0.00 | 0.00 | 0.00 | 1 | 1023.3 |
| 20260831015527 | 0 | 270 | 8.0 | 14.0 | 0.00 | 0.00 | 0.00 | 1 | 1023.4 |
| 20260831014522 | 0 | 270 | 7.0 | 11.0 | 0.00 | 0.00 | 0.00 | 1 | 1023.5 |
| 20260831013613 | 0 | 270 | 7.0 | 11.0 | 0.00 | 0.00 | 0.00 | 1 | 1023.3 |
| 20260831012625 | 0 | 270 | 8.0 | 13.0 | 0.00 | 0.00 | 0.00 | 1 | 1023.4 |
| 20260831011559 | 0 | 270 | 8.0 | 15.0 | 0.00 | 0.00 | 0.00 | 1 | 1023.3 |
| 20260831010549 | 0 | 270 | 9.0 | 14.0 | 0.00 | 0.00 | 0.00 | 1 | 1023.4 |
| 20260831005539 | 0 | 270 | 9.0 | 15.0 | 0.00 | 0.00 | 0.00 | 1 | 1023.5 |
| 20260831004555 | 0 | 270 | 7.0 | 13.0 | 0.00 | 0.00 | 0.00 | 1 | 1023.5 |
| 20260831003525 | 0 | 270 | 8.0 | 15.0 | 0.00 | 0.00 | 0.00 | 1 | 1023.4 |
| 20260831002616 | 0 | 270 | 8.0 | 15.0 | 0.00 | 0.00 | 0.00 | 1 | 1023.4 |
| 20260831001611 | 0 | 270 | 8.0 | 14.0 | 0.00 | 0.00 | 0.00 | 1 | 1023.3 |
| 20260831000601 | 0 | 270 | 8.0 | 11.0 | 0.00 | 0.00 | 0.00 | 1 | 1023.4 |
| 20260830235552 | 0 | 270 | 9.0 | 14.0 | 0.00 | 0.00 | 0.00 | 1 | 1023.3 |
| 20260830234548 | 0 | 270 | 8.0 | 14.0 | 0.00 | 0.00 | 0.00 | 1 | 1023.5 |
| 20260830233537 | 0 | 270 | 8.0 | 14.0 | 0.00 | 0.00 | 0.00 | 1 | 1023.5 |
| 20260830232528 | 0 | 270 | 8.0 | 15.0 | 0.00 | 0.00 | 0.00 | 1 | 1023.4 |
| 20260830231542 | 0 | 270 | 7.0 | 11.0 | 0.00 | 0.00 | 0.00 | 1 | 1023.5 |